TimeMST,TemperatureF,Dew PointF,Humidity,Sea Level PressureIn,VisibilityMPH,Wind Direction,Wind SpeedMPH,Gust SpeedMPH,PrecipitationIn,Events,Conditions,WindDirDegrees,DateUTC
12:52 AM,24.1,16.0,71,30.23,10.0,NNE,4.6,-,N/A,,Clear,20,2013-11-08 07:52:00
1:52 AM,25.0,17.1,72,30.21,10.0,NNE,4.6,-,N/A,,Clear,30,2013-11-08 08:52:00
2:52 AM,30.9,18.0,59,30.16,10.0,Variable,3.5,-,N/A,,Clear,0,2013-11-08 09:52:00
3:52 AM,23.0,15.1,72,30.18,10.0,Calm,Calm,-,N/A,,Clear,0,2013-11-08 10:52:00
4:52 AM,23.0,14.0,68,30.20,10.0,Calm,Calm,-,N/A,,Clear,0,2013-11-08 11:52:00
5:52 AM,25.0,14.0,63,30.22,10.0,NNW,4.6,-,N/A,,Clear,330,2013-11-08 12:52:00
6:52 AM,23.0,14.0,68,30.26,10.0,East,3.5,-,N/A,,Clear,90,2013-11-08 13:52:00
7:52 AM,30.9,17.1,57,30.27,10.0,Calm,Calm,-,N/A,,Clear,0,2013-11-08 14:52:00
8:52 AM,37.9,17.1,43,30.24,10.0,SW,4.6,-,N/A,,Clear,220,2013-11-08 15:52:00
9:52 AM,45.0,18.0,34,30.19,10.0,SW,9.2,-,N/A,,Clear,220,2013-11-08 16:52:00
10:52 AM,53.1,17.1,24,30.12,10.0,South,8.1,-,N/A,,Clear,190,2013-11-08 17:52:00
11:52 AM,57.0,15.1,19,30.04,10.0,South,6.9,-,N/A,,Clear,180,2013-11-08 18:52:00
12:52 PM,60.1,14.0,16,29.98,10.0,West,3.5,-,N/A,,Clear,260,2013-11-08 19:52:00
1:52 PM,62.1,12.0,14,29.94,10.0,SW,5.8,-,N/A,,Clear,230,2013-11-08 20:52:00
2:52 PM,62.1,10.9,13,29.90,10.0,SW,8.1,-,N/A,,Clear,230,2013-11-08 21:52:00
3:52 PM,61.0,10.9,14,29.95,10.0,WSW,4.6,-,N/A,,Clear,240,2013-11-08 22:52:00
4:52 PM,55.9,12.0,18,29.99,10.0,North,4.6,-,N/A,,Clear,350,2013-11-08 23:52:00
5:52 PM,45.0,15.1,30,30.06,10.0,Calm,Calm,-,N/A,,Clear,0,2013-11-09 00:52:00
6:52 PM,42.1,14.0,32,30.12,10.0,WNW,4.6,-,N/A,,Clear,300,2013-11-09 01:52:00
7:52 PM,39.0,14.0,36,30.12,10.0,NNW,5.8,-,N/A,,Clear,330,2013-11-09 02:52:00
8:52 PM,30.9,16.0,54,30.14,10.0,ESE,4.6,-,N/A,,Clear,110,2013-11-09 03:52:00
9:52 PM,28.9,16.0,58,30.13,10.0,ENE,5.8,-,N/A,,Clear,60,2013-11-09 04:52:00
10:52 PM,28.9,16.0,58,30.11,10.0,Calm,Calm,-,N/A,,Clear,0,2013-11-09 05:52:00
11:52 PM,28.0,15.1,58,30.09,10.0,South,4.6,-,N/A,,Clear,180,2013-11-09 06:52:00